Time;durP1;ratioP1;P1;durP2;ratioP2;P2;SDS_P1;SDS_P2;PMS_P1;PMS_P2;Temp;Humidity;BMP_temperature;BMP_pressure;BME280_temperature;BME280_humidity;BME280_pressure;Samples;Min_cycle;Max_cycle;Signal;HPM_P1;HPM_P2
2021/01/24 00:02:12;;;;;;;2.13;1.37;;;3.00;98.00;;;;;;5088756;28;20484;-64
2021/01/24 00:04:38;;;;;;;1.60;1.30;;;3.00;98.00;;;;;;5090577;28;20452;-68
2021/01/24 00:07:05;;;;;;;1.10;1.00;;;3.00;98.00;;;;;;5090656;28;21008;-66
2021/01/24 00:09:32;;;;;;;1.10;0.90;;;3.10;98.00;;;;;;5088560;28;20453;-66
2021/01/24 00:11:58;;;;;;;1.10;1.00;;;3.20;98.00;;;;;;5090489;28;20448;-66
2021/01/24 00:14:26;;;;;;;1.10;1.00;;;3.20;98.00;;;;;;5088764;28;20502;-67
2021/01/24 00:16:52;;;;;;;1.73;1.27;;;3.20;98.00;;;;;;5090600;28;20460;-65
2021/01/24 00:19:19;;;;;;;1.10;1.10;;;3.40;98.00;;;;;;5088806;28;20523;-66
2021/01/24 00:21:46;;;;;;;1.10;1.00;;;3.30;98.00;;;;;;5093167;28;20470;-66
2021/01/24 00:24:13;;;;;;;1.10;1.00;;;3.40;98.00;;;;;;5092655;28;20456;-65
2021/01/24 00:26:39;;;;;;;1.37;1.17;;;3.40;98.00;;;;;;5094291;28;20460;-66
2021/01/24 00:29:06;;;;;;;1.10;0.90;;;3.40;98.00;;;;;;5091221;28;20545;-66
2021/01/24 00:31:33;;;;;;;1.20;1.13;;;3.40;98.00;;;;;;5092680;28;20454;-67
2021/01/24 00:34:00;;;;;;;1.20;1.10;;;3.40;98.00;;;;;;5092394;28;20536;-65
2021/01/24 00:36:26;;;;;;;1.10;1.00;;;3.40;98.00;;;;;;5094082;28;20828;-66
2021/01/24 00:38:53;;;;;;;1.10;0.90;;;3.40;98.00;;;;;;5092122;28;21028;-67
2021/01/24 00:41:20;;;;;;;1.10;0.90;;;3.40;98.00;;;;;;5093946;28;20462;-66
2021/01/24 00:43:46;;;;;;;1.30;1.20;;;3.40;98.00;;;;;;5090934;28;20456;-68
2021/01/24 00:46:14;;;;;;;1.10;0.90;;;3.40;98.00;;;;;;5093865;28;20456;-67
2021/01/24 00:48:41;;;;;;;1.10;0.90;;;3.30;98.00;;;;;;5092013;28;20462;-65
2021/01/24 00:51:08;;;;;;;1.20;1.10;;;3.30;98.00;;;;;;5093813;28;20460;-67
2021/01/24 00:53:34;;;;;;;1.10;1.00;;;3.40;98.00;;;;;;5092098;28;20467;-65
2021/01/24 00:56:08;;;;;;;1.10;1.00;;;3.40;98.00;;;;;;5093772;28;20552;-66
2021/01/24 00:58:35;;;;;;;1.20;1.10;;;3.40;98.00;;;;;;5091721;28;20470;-65
2021/01/24 01:01:01;;;;;;;1.10;0.90;;;3.40;98.00;;;;;;5093344;28;21030;-66
2021/01/24 01:03:28;;;;;;;1.40;1.27;;;3.30;98.00;;;;;;5090106;28;20519;-65
2021/01/24 01:05:56;;;;;;;1.10;1.00;;;3.30;98.00;;;;;;5093524;28;20454;-65
2021/01/24 01:08:22;;;;;;;1.20;1.20;;;3.40;98.00;;;;;;5091628;28;20467;-65
2021/01/24 01:10:49;;;;;;;1.10;1.00;;;3.30;98.00;;;;;;5093314;28;20481;-66
2021/01/24 01:13:15;;;;;;;1.10;0.90;;;3.30;98.00;;;;;;5090221;28;20452;-66
2021/01/24 01:15:42;;;;;;;1.10;1.00;;;3.30;98.00;;;;;;5093262;28;20497;-65
2021/01/24 01:18:09;;;;;;;1.10;1.00;;;3.30;98.00;;;;;;5090338;28;20456;-65
2021/01/24 01:20:35;;;;;;;1.10;1.00;;;3.30;98.00;;;;;;5093125;28;20487;-65
2021/01/24 01:23:03;;;;;;;1.10;0.90;;;3.40;98.00;;;;;;5091433;28;20510;-65
2021/01/24 01:25:29;;;;;;;1.93;1.20;;;3.40;98.00;;;;;;5093153;28;20464;-66
2021/01/24 01:27:56;;;;;;;1.10;0.90;;;3.40;98.00;;;;;;5090008;28;20465;-68
2021/01/24 01:30:23;;;;;;;1.10;1.00;;;3.40;98.00;;;;;;5092918;28;20452;-67
2021/01/24 01:32:50;;;;;;;1.10;1.00;;;3.40;98.00;;;;;;5091036;28;20487;-65
2021/01/24 01:35:17;;;;;;;1.10;0.90;;;3.30;98.00;;;;;;5092881;28;20463;-66
2021/01/24 01:37:43;;;;;;;1.10;0.90;;;3.30;98.00;;;;;;5091265;28;20501;-66
2021/01/24 01:40:13;;;;;;;1.10;0.90;;;3.30;98.00;;;;;;5092885;28;21001;-65
2021/01/24 01:42:39;;;;;;;1.10;1.00;;;3.20;98.00;;;;;;5090028;28;20492;-65
2021/01/24 01:45:07;;;;;;;1.20;1.20;;;3.30;98.00;;;;;;5093146;28;20460;-65
2021/01/24 01:47:34;;;;;;;1.10;0.90;;;3.20;98.00;;;;;;5091304;28;20489;-67
2021/01/24 01:50:01;;;;;;;1.30;1.20;;;3.20;98.00;;;;;;5092871;28;20448;-67
2021/01/24 01:52:29;;;;;;;1.10;1.10;;;3.30;98.00;;;;;;5091067;28;20452;-66
2021/01/24 01:54:59;;;;;;;1.10;1.00;;;3.40;98.00;;;;;;5092687;28;20463;-65
2021/01/24 01:57:27;;;;;;;1.10;1.00;;;3.40;98.00;;;;;;5089702;28;20500;-67
2021/01/24 01:59:53;;;;;;;1.10;1.00;;;3.40;98.00;;;;;;5092305;28;20997;-66
2021/01/24 02:02:31;;;;;;;1.10;0.90;;;3.40;98.00;;;;;;5092219;28;20818;-65
2021/01/24 02:05:05;;;;;;;1.20;1.17;;;3.40;98.00;;;;;;5092490;28;20463;-66
2021/01/24 02:07:39;;;;;;;1.17;1.00;;;3.40;98.00;;;;;;5090558;28;20743;-66
2021/01/24 02:10:10;;;;;;;1.30;1.10;;;3.40;98.00;;;;;;5092331;28;20459;-67
2021/01/24 02:12:48;;;;;;;1.10;1.00;;;3.40;98.00;;;;;;5090585;28;20467;-66
2021/01/24 02:15:18;;;;;;;1.10;0.90;;;3.40;98.00;;;;;;5092315;28;20804;-68
2021/01/24 02:17:50;;;;;;;1.13;1.07;;;3.40;98.00;;;;;;5089298;28;20463;-66
2021/01/24 02:20:23;;;;;;;2.07;1.30;;;3.40;98.00;;;;;;5090795;28;21092;-66
2021/01/24 02:22:52;;;;;;;1.20;1.00;;;3.40;98.00;;;;;;5090284;28;20463;-65
2021/01/24 02:25:27;;;;;;;1.50;1.30;;;3.30;98.00;;;;;;5091902;28;20946;-68
2021/01/24 02:28:12;;;;;;;1.10;0.97;;;3.40;98.00;;;;;;5090236;28;20454;-66
2021/01/24 02:30:41;;;;;;;1.10;0.90;;;3.30;98.00;;;;;;5091768;28;20467;-67
2021/01/24 02:33:11;;;;;;;1.10;0.90;;;3.30;98.00;;;;;;5090115;28;20460;-67
2021/01/24 02:35:41;;;;;;;1.30;1.30;;;3.30;98.00;;;;;;5091726;28;20459;-66
2021/01/24 02:38:10;;;;;;;1.10;1.00;;;3.40;98.00;;;;;;5089980;28;20467;-66
2021/01/24 02:40:38;;;;;;;1.10;1.00;;;3.30;98.00;;;;;;5091857;28;20487;-69
2021/01/24 02:43:08;;;;;;;1.30;1.00;;;3.20;98.00;;;;;;5089654;28;20466;-66
2021/01/24 02:45:36;;;;;;;1.10;0.93;;;3.10;98.00;;;;;;5091574;28;20459;-66
2021/01/24 02:48:05;;;;;;;1.10;1.00;;;3.00;98.00;;;;;;5090250;28;20483;-66
2021/01/24 02:50:32;;;;;;;1.10;1.00;;;2.90;98.00;;;;;;5092718;28;20448;-66
2021/01/24 02:53:00;;;;;;;1.10;0.90;;;2.90;98.00;;;;;;5089998;28;20984;-66
2021/01/24 02:55:27;;;;;;;1.10;0.90;;;2.90;98.00;;;;;;5092449;28;20512;-65
2021/01/24 02:57:54;;;;;;;1.10;0.93;;;2.90;98.00;;;;;;5089915;28;20465;-65
2021/01/24 03:00:21;;;;;;;1.10;0.90;;;2.90;98.00;;;;;;5091112;28;20492;-66
2021/01/24 03:02:48;;;;;;;1.47;1.10;;;2.90;98.00;;;;;;5089804;28;20802;-65
2021/01/24 03:05:16;;;;;;;1.10;1.00;;;2.90;98.00;;;;;;5091519;28;20852;-67
2021/01/24 03:07:43;;;;;;;1.30;1.20;;;2.80;98.00;;;;;;5088101;28;20471;-65
2021/01/24 03:10:14;;;;;;;1.10;1.00;;;2.80;98.00;;;;;;5091385;28;20469;-65
2021/01/24 03:12:46;;;;;;;1.10;0.90;;;2.80;98.00;;;;;;5088091;28;20813;-66
2021/01/24 03:15:15;;;;;;;1.10;1.00;;;2.80;98.00;;;;;;5091385;28;20776;-66
2021/01/24 03:17:45;;;;;;;1.10;0.90;;;2.80;98.00;;;;;;5089631;28;20656;-65
2021/01/24 03:20:13;;;;;;;1.10;1.10;;;2.80;98.00;;;;;;5091297;28;20572;-65
2021/01/24 03:22:43;;;;;;;1.10;1.00;;;2.80;98.00;;;;;;5089209;28;20474;-65
2021/01/24 03:25:10;;;;;;;1.10;0.97;;;2.70;98.00;;;;;;5091204;28;20450;-65
2021/01/24 03:27:37;;;;;;;1.10;0.90;;;2.70;98.00;;;;;;5089116;28;20516;-67
2021/01/24 03:30:05;;;;;;;1.10;1.00;;;2.80;98.00;;;;;;5091135;28;20459;-65
2021/01/24 03:32:33;;;;;;;1.10;1.00;;;2.80;98.00;;;;;;5089278;28;20463;-66
2021/01/24 03:34:59;;;;;;;1.10;0.90;;;2.80;98.00;;;;;;5091017;28;20470;-65
2021/01/24 03:37:26;;;;;;;1.10;0.93;;;2.70;98.00;;;;;;5090756;28;20483;-65
2021/01/24 03:39:53;;;;;;;1.10;0.90;;;2.70;98.00;;;;;;5088796;28;20479;-65
2021/01/24 03:42:20;;;;;;;1.40;1.33;;;2.70;98.00;;;;;;5090844;28;20470;-65
2021/01/24 03:44:46;;;;;;;1.10;0.93;;;2.70;98.00;;;;;;5088875;28;20985;-65
2021/01/24 03:47:15;;;;;;;1.10;0.90;;;2.70;98.00;;;;;;5090760;28;20460;-66
2021/01/24 03:49:41;;;;;;;1.10;0.90;;;2.70;98.00;;;;;;5089038;28;20450;-66
2021/01/24 03:52:08;;;;;;;1.10;1.00;;;2.60;98.00;;;;;;5090843;28;20458;-65
2021/01/24 03:54:34;;;;;;;1.20;0.90;;;2.60;98.00;;;;;;5088735;28;20462;-67
2021/01/24 03:57:01;;;;;;;1.10;0.90;;;2.60;98.00;;;;;;5093662;28;20463;-67
2021/01/24 03:59:28;;;;;;;1.10;1.00;;;2.60;98.00;;;;;;5092766;28;21070;-67
2021/01/24 04:01:54;;;;;;;1.20;1.00;;;2.60;98.00;;;;;;5094743;28;20451;-67
2021/01/24 04:04:21;;;;;;;1.40;1.37;;;2.50;98.00;;;;;;5091896;28;20482;-65
2021/01/24 04:06:48;;;;;;;1.17;0.97;;;2.50;98.00;;;;;;5094679;28;20975;-65
2021/01/24 04:09:14;;;;;;;1.10;0.90;;;2.40;98.00;;;;;;5091340;28;20622;-68
2021/01/24 04:11:41;;;;;;;1.57;1.43;;;2.30;98.00;;;;;;5094495;28;20459;-66
2021/01/24 04:14:08;;;;;;;1.10;1.00;;;2.30;98.00;;;;;;5092845;28;20897;-65
2021/01/24 04:16:35;;;;;;;1.10;1.00;;;2.30;98.00;;;;;;5094441;28;20462;-65
2021/01/24 04:19:02;;;;;;;1.10;0.90;;;2.30;98.00;;;;;;5092567;28;20656;-65
2021/01/24 04:21:29;;;;;;;1.17;1.00;;;2.20;98.00;;;;;;5094365;28;20492;-65
2021/01/24 04:23:55;;;;;;;1.10;1.00;;;2.20;98.00;;;;;;5092510;28;20960;-67
2021/01/24 04:26:22;;;;;;;1.20;1.00;;;2.10;98.00;;;;;;5094339;28;20985;-66
2021/01/24 04:28:49;;;;;;;1.10;1.00;;;2.10;98.00;;;;;;5092405;28;20462;-66
2021/01/24 04:31:16;;;;;;;1.20;1.03;;;2.10;98.00;;;;;;5094093;28;20454;-66
2021/01/24 04:33:43;;;;;;;1.20;1.00;;;2.10;98.00;;;;;;5092383;28;20462;-65
2021/01/24 04:36:10;;;;;;;1.17;0.90;;;2.10;98.00;;;;;;5094116;28;20954;-66
2021/01/24 04:38:36;;;;;;;1.20;1.10;;;2.10;98.00;;;;;;5092356;28;20883;-65
2021/01/24 04:41:03;;;;;;;1.10;0.97;;;2.10;98.00;;;;;;5094061;28;20979;-66
2021/01/24 04:43:32;;;;;;;1.10;1.00;;;2.10;98.00;;;;;;5092484;28;20967;-65
2021/01/24 04:45:59;;;;;;;1.10;1.00;;;2.10;98.00;;;;;;5094269;28;20454;-66
2021/01/24 04:48:27;;;;;;;1.20;1.00;;;2.10;98.00;;;;;;5092253;28;20456;-65
2021/01/24 04:50:54;;;;;;;1.17;1.00;;;2.00;98.00;;;;;;5093889;28;20454;-65
2021/01/24 04:53:22;;;;;;;1.10;1.00;;;2.00;98.00;;;;;;5091933;28;20454;-66
2021/01/24 04:55:50;;;;;;;1.20;1.00;;;2.00;98.00;;;;;;5093821;28;20804;-64
2021/01/24 04:58:17;;;;;;;1.20;1.00;;;1.90;98.00;;;;;;5092011;28;20465;-65
2021/01/24 05:00:44;;;;;;;1.20;1.00;;;1.90;98.00;;;;;;5093496;28;20521;-65
2021/01/24 05:03:18;;;;;;;1.10;1.00;;;1.90;98.00;;;;;;5091731;28;20480;-64
2021/01/24 05:05:46;;;;;;;1.17;1.00;;;1.90;98.00;;;;;;5093670;28;20453;-66
2021/01/24 05:08:16;;;;;;;1.20;1.10;;;1.90;98.00;;;;;;5090998;28;20453;-65
2021/01/24 05:10:45;;;;;;;1.10;1.00;;;1.90;98.00;;;;;;5093235;28;20512;-65
2021/01/24 05:13:11;;;;;;;1.10;0.90;;;1.90;98.00;;;;;;5091838;28;20458;-65
2021/01/24 05:15:38;;;;;;;1.10;0.90;;;1.90;98.00;;;;;;5093559;28;20466;-68
2021/01/24 05:18:05;;;;;;;1.20;1.00;;;1.90;98.00;;;;;;5091610;28;20949;-65
2021/01/24 05:20:33;;;;;;;1.30;1.10;;;1.80;98.00;;;;;;5092763;28;20512;-65
2021/01/24 05:23:04;;;;;;;1.50;1.23;;;1.90;98.00;;;;;;5091169;28;20469;-65
2021/01/24 05:25:32;;;;;;;1.20;1.10;;;1.80;98.00;;;;;;5093274;28;20523;-67
2021/01/24 05:28:16;;;;;;;1.20;1.00;;;1.80;98.00;;;;;;5091370;28;20461;-65
2021/01/24 05:30:42;;;;;;;1.10;0.93;;;1.80;98.00;;;;;;5093142;28;20763;-65
2021/01/24 05:33:09;;;;;;;1.20;1.00;;;1.80;98.00;;;;;;5090059;28;20454;-67
2021/01/24 05:35:46;;;;;;;1.20;1.00;;;1.70;98.00;;;;;;5091791;28;20459;-66
2021/01/24 05:38:22;;;;;;;1.20;1.00;;;1.70;98.00;;;;;;5091329;28;20454;-67
2021/01/24 05:40:49;;;;;;;1.20;1.00;;;1.70;98.00;;;;;;5092809;28;20484;-65
2021/01/24 05:43:17;;;;;;;1.20;1.00;;;1.70;98.00;;;;;;5091165;28;20977;-65
2021/01/24 05:45:44;;;;;;;1.20;1.00;;;1.60;98.00;;;;;;5092794;28;20460;-66
2021/01/24 05:48:11;;;;;;;1.20;1.00;;;1.60;98.00;;;;;;5091233;28;20461;-65
2021/01/24 05:50:37;;;;;;;2.23;2.03;;;1.60;98.00;;;;;;5092710;28;20498;-64
2021/01/24 05:53:05;;;;;;;1.67;1.27;;;1.60;98.00;;;;;;5090993;28;20976;-66
2021/01/24 05:55:34;;;;;;;1.20;0.90;;;1.60;98.00;;;;;;5092716;28;20449;-65
2021/01/24 05:58:15;;;;;;;1.20;1.10;;;1.60;98.00;;;;;;5090672;28;20469;-66
2021/01/24 06:00:43;;;;;;;1.20;0.90;;;1.50;98.00;;;;;;5092181;28;20520;-66
2021/01/24 06:03:11;;;;;;;1.20;1.00;;;1.50;98.00;;;;;;5090836;28;20480;-65
2021/01/24 06:05:38;;;;;;;1.20;1.00;;;1.40;98.00;;;;;;5092371;28;20461;-66
2021/01/24 06:08:05;;;;;;;1.20;1.00;;;1.40;98.00;;;;;;5090512;28;20547;-65
2021/01/24 06:10:33;;;;;;;1.10;1.00;;;1.40;98.00;;;;;;5091267;28;20458;-65
2021/01/24 06:13:00;;;;;;;1.20;0.90;;;1.40;98.00;;;;;;5090538;28;20457;-65
2021/01/24 06:15:29;;;;;;;1.47;1.17;;;1.40;98.00;;;;;;5092001;28;20457;-67
2021/01/24 06:17:57;;;;;;;1.20;1.00;;;1.40;98.00;;;;;;5089822;28;20462;-66
2021/01/24 06:20:31;;;;;;;1.10;0.97;;;1.30;98.00;;;;;;5091905;28;20481;-65
2021/01/24 06:23:10;;;;;;;1.20;0.90;;;1.30;98.00;;;;;;5090567;28;20458;-67
2021/01/24 06:25:42;;;;;;;1.40;1.17;;;1.30;98.00;;;;;;5092130;28;20487;-64
2021/01/24 06:28:14;;;;;;;1.20;1.00;;;1.30;98.00;;;;;;5090156;28;20468;-65
2021/01/24 06:30:45;;;;;;;1.20;1.00;;;1.30;98.00;;;;;;5091938;28;20457;-66
2021/01/24 06:33:16;;;;;;;1.40;1.33;;;1.30;98.00;;;;;;5090107;28;20450;-65
2021/01/24 06:35:47;;;;;;;1.17;1.00;;;1.20;98.00;;;;;;5091754;28;20516;-65
2021/01/24 06:38:30;;;;;;;1.20;1.00;;;1.20;98.00;;;;;;5090012;28;20206;-64
2021/01/24 06:40:57;;;;;;;1.20;1.07;;;1.20;98.00;;;;;;5091676;28;20538;-65
2021/01/24 06:43:37;;;;;;;1.20;1.10;;;1.20;98.00;;;;;;5089949;28;20464;-65
2021/01/24 06:46:04;;;;;;;1.10;0.95;;;1.10;98.00;;;;;;5091417;28;20202;-65
2021/01/24 06:48:41;;;;;;;1.20;1.10;;;1.10;98.00;;;;;;5089732;28;20198;-65
2021/01/24 06:51:40;;;;;;;1.20;1.00;;;1.10;98.00;;;;;;5090162;28;20798;-65
2021/01/24 06:54:26;;;;;;;1.20;1.00;;;1.10;98.00;;;;;;5084459;28;20506;-64
2021/01/24 06:57:06;;;;;;;1.17;1.00;;;1.10;98.00;;;;;;5091304;28;20452;-64
2021/01/24 06:59:32;;;;;;;1.20;1.00;;;1.10;98.00;;;;;;5088228;28;20478;-64
2021/01/24 07:02:24;;;;;;;1.20;1.00;;;1.20;98.00;;;;;;5091315;28;20478;-68
2021/01/24 07:05:06;;;;;;;1.20;1.00;;;1.20;98.00;;;;;;5089484;28;20507;-65
2021/01/24 07:07:41;;;;;;;1.20;0.90;;;1.20;98.00;;;;;;5089190;28;20456;-65
2021/01/24 07:10:10;;;;;;;1.20;1.00;;;1.10;98.00;;;;;;5089441;28;20201;-65
2021/01/24 07:12:49;;;;;;;1.30;1.20;;;1.10;98.00;;;;;;5091150;28;20464;-65
2021/01/24 07:15:21;;;;;;;1.20;0.90;;;1.10;98.00;;;;;;5089639;28;20454;-65
2021/01/24 07:18:01;;;;;;;1.37;1.07;;;1.10;98.00;;;;;;5091055;28;20454;-65
2021/01/24 07:20:28;;;;;;;1.20;1.00;;;1.00;98.00;;;;;;5090966;28;20488;-66
2021/01/24 07:22:55;;;;;;;1.20;1.00;;;1.00;98.00;;;;;;5090079;28;20502;-66
2021/01/24 07:25:23;;;;;;;1.20;0.90;;;1.10;98.00;;;;;;5091230;28;20942;-66
2021/01/24 07:27:55;;;;;;;1.20;1.00;;;1.00;98.00;;;;;;5091080;28;20546;-65
2021/01/24 07:30:26;;;;;;;1.10;1.00;;;1.00;98.00;;;;;;5090835;28;20829;-66
2021/01/24 07:32:53;;;;;;;1.20;1.00;;;1.00;98.00;;;;;;5090568;28;20459;-65
2021/01/24 07:35:21;;;;;;;1.20;1.00;;;1.10;98.00;;;;;;5090094;28;20944;-64
2021/01/24 07:37:49;;;;;;;1.20;1.00;;;1.10;98.00;;;;;;5090808;28;20527;-66
2021/01/24 07:40:16;;;;;;;1.30;1.20;;;1.20;98.00;;;;;;5088643;28;20485;-65
2021/01/24 07:42:44;;;;;;;1.20;1.00;;;1.20;98.00;;;;;;5090725;28;20535;-64
2021/01/24 07:45:12;;;;;;;1.50;1.10;;;1.30;98.00;;;;;;5089027;28;20202;-66
2021/01/24 07:47:39;;;;;;;1.20;1.00;;;1.30;98.00;;;;;;5090743;28;20476;-65
2021/01/24 07:50:06;;;;;;;1.20;1.00;;;1.20;98.00;;;;;;5087660;28;20457;-65
2021/01/24 07:52:33;;;;;;;1.20;1.00;;;1.20;98.00;;;;;;5089467;28;20486;-64
2021/01/24 07:54:59;;;;;;;1.63;1.33;;;1.30;98.00;;;;;;5088319;28;20522;-66
2021/01/24 07:57:26;;;;;;;1.20;1.00;;;1.30;98.00;;;;;;5090666;28;20458;-65
2021/01/24 07:59:54;;;;;;;1.13;0.90;;;1.40;98.00;;;;;;5087220;28;20478;-65
2021/01/24 08:02:22;;;;;;;1.20;1.00;;;1.40;98.00;;;;;;5089332;28;20669;-65
2021/01/24 08:04:48;;;;;;;1.20;0.93;;;1.40;98.00;;;;;;5088314;28;20943;-65
2021/01/24 08:07:15;;;;;;;1.20;0.93;;;1.40;98.00;;;;;;5090666;28;20531;-64
2021/01/24 08:09:43;;;;;;;1.17;1.00;;;1.50;98.00;;;;;;5088633;28;20449;-64
2021/01/24 08:12:11;;;;;;;1.20;1.00;;;1.50;98.00;;;;;;5090863;28;20454;-64
2021/01/24 08:14:38;;;;;;;1.20;1.00;;;1.50;98.00;;;;;;5088773;28;20466;-66
2021/01/24 08:17:08;;;;;;;1.40;1.13;;;1.60;98.00;;;;;;5090956;28;20876;-64
2021/01/24 08:19:36;;;;;;;1.40;1.30;;;1.60;98.00;;;;;;5088152;28;20579;-64
2021/01/24 08:22:03;;;;;;;1.20;0.90;;;1.60;98.00;;;;;;5090560;28;20465;-64
2021/01/24 08:24:30;;;;;;;1.10;0.90;;;1.60;98.00;;;;;;5088441;28;20458;-66
2021/01/24 08:26:57;;;;;;;1.20;1.00;;;1.50;98.00;;;;;;5090690;28;20457;-64
2021/01/24 08:29:26;;;;;;;1.20;1.00;;;1.60;98.00;;;;;;5088224;28;20489;-65
2021/01/24 08:31:59;;;;;;;1.70;1.33;;;1.60;98.00;;;;;;5090717;28;20459;-65
2021/01/24 08:34:25;;;;;;;1.20;1.00;;;1.60;98.00;;;;;;5089509;28;20507;-65
2021/01/24 08:36:53;;;;;;;1.20;0.90;;;1.60;98.00;;;;;;5090998;28;20458;-65
2021/01/24 08:39:23;;;;;;;1.20;1.00;;;1.60;98.00;;;;;;5089525;28;20481;-65
2021/01/24 08:41:51;;;;;;;1.20;1.00;;;1.60;98.00;;;;;;5091642;28;20466;-66
2021/01/24 08:44:18;;;;;;;1.20;1.00;;;1.50;98.00;;;;;;5091981;28;20461;-66
2021/01/24 08:46:47;;;;;;;1.20;1.00;;;1.50;98.00;;;;;;5094185;28;20449;-66
2021/01/24 08:49:20;;;;;;;1.20;0.90;;;1.50;98.00;;;;;;5091849;28;20516;-65
2021/01/24 08:51:49;;;;;;;1.20;0.90;;;1.60;98.00;;;;;;5094153;28;20730;-65
2021/01/24 08:54:29;;;;;;;1.20;1.00;;;1.60;98.00;;;;;;5091738;28;20976;-64
2021/01/24 08:57:11;;;;;;;2.17;1.97;;;1.60;98.00;;;;;;5093814;28;20882;-66
2021/01/24 08:59:39;;;;;;;1.20;1.00;;;1.60;98.00;;;;;;5089936;28;20484;-64
2021/01/24 09:02:06;;;;;;;1.20;1.00;;;1.70;98.00;;;;;;5093802;28;20828;-64
2021/01/24 09:04:33;;;;;;;1.20;1.00;;;1.80;98.00;;;;;;5090163;28;20483;-64
2021/01/24 09:07:09;;;;;;;1.20;1.00;;;1.80;98.00;;;;;;5093753;28;20882;-65
2021/01/24 09:09:39;;;;;;;1.20;0.90;;;1.90;98.00;;;;;;5091773;28;20460;-64
2021/01/24 09:12:06;;;;;;;1.10;0.90;;;2.00;98.00;;;;;;5092520;28;20489;-65
2021/01/24 09:14:33;;;;;;;1.20;1.10;;;2.00;98.00;;;;;;5091071;28;20536;-65
2021/01/24 09:17:06;;;;;;;1.20;0.90;;;2.00;98.00;;;;;;5093181;28;20465;-65
2021/01/24 09:19:35;;;;;;;1.20;1.00;;;1.90;98.00;;;;;;5090693;28;20981;-65
2021/01/24 09:22:02;;;;;;;1.20;1.00;;;1.90;98.00;;;;;;5091659;28;20470;-64
2021/01/24 09:24:29;;;;;;;1.30;1.10;;;1.90;98.00;;;;;;5091238;28;20457;-65
2021/01/24 09:26:56;;;;;;;1.13;1.00;;;1.90;98.00;;;;;;5091641;28;20478;-64
2021/01/24 09:29:29;;;;;;;1.20;1.00;;;2.00;98.00;;;;;;5090535;28;20473;-64
2021/01/24 09:31:55;;;;;;;1.47;1.40;;;2.00;98.00;;;;;;5091270;28;20487;-64
2021/01/24 09:34:22;;;;;;;1.20;1.00;;;2.00;98.00;;;;;;5090588;28;20828;-65
2021/01/24 09:36:49;;;;;;;1.20;1.00;;;2.00;98.00;;;;;;5092747;28;20462;-64
2021/01/24 09:39:15;;;;;;;1.20;1.00;;;2.00;98.00;;;;;;5090417;28;20957;-64
2021/01/24 09:41:42;;;;;;;1.20;1.00;;;2.00;98.00;;;;;;5092592;28;21046;-65
2021/01/24 09:44:10;;;;;;;1.10;1.00;;;2.10;98.00;;;;;;5090587;28;20490;-65
2021/01/24 09:46:37;;;;;;;1.20;1.10;;;2.00;98.00;;;;;;5092478;28;20462;-65
2021/01/24 09:49:04;;;;;;;1.20;0.90;;;2.10;98.00;;;;;;5090350;28;20856;-64
2021/01/24 09:51:31;;;;;;;1.20;0.90;;;2.00;98.00;;;;;;5092234;28;20936;-64
2021/01/24 09:53:57;;;;;;;1.20;1.00;;;2.00;98.00;;;;;;5088894;28;20999;-64
2021/01/24 09:56:24;;;;;;;1.20;0.97;;;1.90;98.00;;;;;;5092159;28;20457;-64
2021/01/24 09:58:51;;;;;;;1.10;1.00;;;1.80;98.00;;;;;;5089889;28;20636;-64
2021/01/24 10:01:19;;;;;;;1.20;1.00;;;1.80;98.00;;;;;;5091703;28;20510;-64
2021/01/24 10:03:46;;;;;;;1.20;1.10;;;1.70;98.00;;;;;;5090101;28;20598;-64
2021/01/24 10:06:13;;;;;;;1.40;1.30;;;1.70;98.00;;;;;;5092089;28;20515;-65
2021/01/24 10:08:40;;;;;;;1.77;1.67;;;1.50;98.00;;;;;;5089673;28;20456;-64
2021/01/24 10:11:06;;;;;;;1.10;1.00;;;1.50;98.00;;;;;;5091933;28;20901;-64
2021/01/24 10:13:33;;;;;;;1.30;1.20;;;1.50;98.00;;;;;;5089729;28;20462;-64
2021/01/24 10:16:00;;;;;;;1.10;0.90;;;1.50;98.00;;;;;;5090399;28;20550;-66
2021/01/24 10:18:27;;;;;;;1.10;0.90;;;1.60;98.00;;;;;;5089049;28;21029;-65
2021/01/24 10:20:54;;;;;;;4.73;2.03;;;1.60;98.00;;;;;;5091528;28;20527;-65
2021/01/24 10:23:21;;;;;;;1.10;1.00;;;1.80;98.00;;;;;;5089666;28;20509;-64
2021/01/24 10:25:49;;;;;;;1.10;1.00;;;1.80;98.00;;;;;;5091386;28;20461;-64
2021/01/24 10:28:16;;;;;;;1.20;1.00;;;1.90;98.00;;;;;;5088198;28;20454;-64
2021/01/24 10:30:43;;;;;;;1.10;0.90;;;1.90;98.00;;;;;;5091325;28;20525;-65
2021/01/24 10:33:11;;;;;;;1.10;1.00;;;1.90;98.00;;;;;;5091598;28;20845;-65
2021/01/24 10:35:39;;;;;;;1.10;1.00;;;2.00;98.00;;;;;;5090594;28;20461;-66
2021/01/24 10:38:06;;;;;;;1.37;1.33;;;2.00;98.00;;;;;;5091313;28;20462;-65
2021/01/24 10:40:32;;;;;;;1.10;1.00;;;2.10;98.00;;;;;;5089333;28;20497;-65
2021/01/24 10:42:59;;;;;;;1.10;1.00;;;2.20;98.00;;;;;;5091360;28;20887;-65
2021/01/24 10:45:26;;;;;;;1.20;1.00;;;2.20;98.00;;;;;;5089151;28;20469;-65
2021/01/24 10:47:52;;;;;;;1.20;1.20;;;2.10;98.00;;;;;;5091231;28;20498;-64
2021/01/24 10:50:19;;;;;;;1.20;1.10;;;2.10;98.00;;;;;;5089164;28;20449;-64
2021/01/24 10:52:47;;;;;;;1.10;0.90;;;2.10;98.00;;;;;;5091003;28;20461;-65
2021/01/24 10:55:13;;;;;;;1.20;1.10;;;2.20;98.00;;;;;;5088090;28;20463;-64
2021/01/24 10:57:40;;;;;;;1.10;0.93;;;2.20;98.00;;;;;;5090730;28;20945;-64
2021/01/24 11:00:08;;;;;;;1.20;1.00;;;2.30;98.00;;;;;;5089043;28;20483;-64
2021/01/24 11:02:34;;;;;;;1.10;1.00;;;2.30;98.00;;;;;;5091270;28;20463;-65
2021/01/24 11:05:02;;;;;;;1.20;1.00;;;2.40;98.00;;;;;;5089092;28;20442;-65
2021/01/24 11:07:28;;;;;;;1.20;1.20;;;2.50;98.00;;;;;;5091046;28;20828;-64
2021/01/24 11:09:56;;;;;;;1.10;0.90;;;2.50;98.00;;;;;;5088929;28;20458;-65
2021/01/24 11:12:23;;;;;;;1.20;0.90;;;2.60;98.00;;;;;;5090520;28;20459;-64
2021/01/24 11:14:51;;;;;;;1.13;1.00;;;2.60;98.00;;;;;;5089022;28;20543;-65
2021/01/24 11:17:17;;;;;;;1.20;0.90;;;2.60;98.00;;;;;;5089576;28;20540;-65
2021/01/24 11:19:44;;;;;;;1.30;1.10;;;2.60;98.00;;;;;;5088833;28;20459;-64
2021/01/24 11:22:12;;;;;;;1.20;1.00;;;2.60;98.00;;;;;;5090595;28;20582;-65
2021/01/24 11:24:39;;;;;;;1.20;1.00;;;2.60;98.00;;;;;;5087289;28;20470;-64
2021/01/24 11:27:07;;;;;;;1.20;1.00;;;2.50;98.00;;;;;;5090702;28;20481;-65
2021/01/24 11:29:34;;;;;;;1.20;1.00;;;2.60;98.00;;;;;;5088638;28;20487;-65
2021/01/24 11:32:00;;;;;;;1.17;1.00;;;2.60;98.00;;;;;;5090645;28;20542;-64
2021/01/24 11:34:27;;;;;;;1.43;1.23;;;2.70;98.00;;;;;;5088920;28;20829;-63
2021/01/24 11:36:54;;;;;;;1.20;1.00;;;2.70;98.00;;;;;;5089301;28;20675;-65
2021/01/24 11:39:21;;;;;;;1.20;1.00;;;2.70;98.00;;;;;;5088419;28;20458;-63
2021/01/24 11:41:48;;;;;;;1.20;1.00;;;2.80;98.00;;;;;;5090371;28;20485;-64
2021/01/24 11:44:16;;;;;;;1.20;1.00;;;2.70;98.00;;;;;;5088543;28;20470;-64
2021/01/24 11:46:42;;;;;;;1.20;0.90;;;2.80;98.00;;;;;;5090188;28;20460;-65
2021/01/24 11:49:09;;;;;;;1.20;1.00;;;2.80;98.00;;;;;;5088239;28;20512;-64
2021/01/24 11:51:36;;;;;;;1.23;1.23;;;2.80;98.00;;;;;;5090307;28;20470;-65
2021/01/24 11:54:03;;;;;;;1.20;1.00;;;2.80;98.00;;;;;;5088681;28;21023;-64
2021/01/24 11:56:30;;;;;;;1.20;0.90;;;2.80;98.00;;;;;;5089085;28;20463;-64
2021/01/24 11:58:56;;;;;;;1.20;0.90;;;2.90;98.00;;;;;;5088020;28;21026;-64
2021/01/24 12:01:24;;;;;;;1.20;0.90;;;2.90;98.00;;;;;;5090040;28;20873;-64
2021/01/24 12:03:51;;;;;;;1.20;1.00;;;2.90;98.00;;;;;;5088512;28;20948;-67
2021/01/24 12:06:19;;;;;;;1.20;1.00;;;2.90;98.00;;;;;;5090236;28;20452;-65
2021/01/24 12:08:45;;;;;;;1.20;1.00;;;3.00;98.00;;;;;;5086739;28;20542;-65
2021/01/24 12:11:12;;;;;;;1.20;1.00;;;3.00;98.00;;;;;;5090345;28;20466;-64
2021/01/24 12:13:38;;;;;;;1.20;1.00;;;2.90;98.00;;;;;;5086907;28;20881;-65
2021/01/24 12:16:06;;;;;;;1.20;1.00;;;2.90;98.00;;;;;;5090150;28;20466;-63
2021/01/24 12:18:33;;;;;;;1.20;1.00;;;2.90;98.00;;;;;;5091977;28;20463;-64
2021/01/24 12:20:59;;;;;;;1.40;1.00;;;3.30;98.00;;;;;;5094054;28;20491;-65
2021/01/24 12:23:26;;;;;;;1.20;0.90;;;3.70;98.00;;;;;;5092256;28;20463;-65
2021/01/24 12:25:54;;;;;;;1.20;1.00;;;3.70;98.00;;;;;;5094263;28;20459;-64
2021/01/24 12:28:20;;;;;;;1.20;1.00;;;3.60;98.00;;;;;;5094174;28;21008;-63
2021/01/24 12:30:47;;;;;;;1.20;1.00;;;3.30;98.00;;;;;;5091956;28;21001;-64
2021/01/24 12:33:13;;;;;;;1.20;0.90;;;3.20;98.00;;;;;;5094180;28;20458;-63
2021/01/24 12:35:41;;;;;;;1.20;0.90;;;3.10;98.00;;;;;;5092084;28;20459;-64
2021/01/24 12:38:08;;;;;;;1.20;1.00;;;3.10;98.00;;;;;;5093870;28;20455;-63
2021/01/24 12:40:35;;;;;;;1.20;0.90;;;3.00;98.00;;;;;;5091900;28;20544;-66
2021/01/24 12:43:02;;;;;;;1.20;1.00;;;3.00;98.00;;;;;;5093774;28;20462;-67
2021/01/24 12:45:29;;;;;;;1.20;1.00;;;2.90;98.00;;;;;;5091682;28;20815;-66
2021/01/24 12:47:56;;;;;;;1.20;1.00;;;2.90;98.00;;;;;;5093447;28;20960;-67
2021/01/24 12:50:22;;;;;;;2.70;2.10;;;2.70;98.00;;;;;;5091420;28;20454;-65
2021/01/24 12:52:49;;;;;;;1.20;1.00;;;2.60;98.00;;;;;;5093493;28;20466;-66
2021/01/24 12:55:18;;;;;;;1.17;1.00;;;2.60;98.00;;;;;;5091630;28;20505;-64
2021/01/24 12:57:44;;;;;;;1.20;1.00;;;2.60;98.00;;;;;;5092228;28;20525;-66
2021/01/24 13:00:11;;;;;;;1.30;1.20;;;2.70;98.00;;;;;;5090903;28;20477;-65
2021/01/24 13:02:38;;;;;;;1.20;1.10;;;2.60;98.00;;;;;;5093144;28;21007;-65
2021/01/24 13:05:09;;;;;;;1.20;1.00;;;2.70;98.00;;;;;;5091494;28;20462;-65